Crestview, FL

1:16 AM CST on February 07, 2016 (GMT -0600)
Sikes | | Change Station
CLOSE
Current Station
Airport
Location: Crestview,
Elevation: 213 ft
Nearby Weather Stations

Elev 213 ft 30.78 °N, 86.52 °W | Updated 23 minutes ago

Clear
Clear
39 °F
Feels Like 33 °F
N
8
Wind Variable Wind from NNW

Today
High -- | Low -- °F
--% Chance of Precip.
Yesterday
High -- | Low -- °F
Precip. -- in
Pressure 30.22 in
Visibility 10.0 miles
Clouds Clear
Windchill 33 °F
Dew Point 23 °F
Humidity 53%
Rainfall 0.00 in
Snow Depth Not available.
6:33 AM 5:26 PM
Waning Crescent, 2% visible
METAR KCEW 070653Z AUTO 34007KT 10SM CLR 04/M05 A3022 RMK AO2 SLP234 T00391050
Pressure 30.22 in
Visibility 10.0 miles
Clouds Clear
Windchill 33 °F
Dew Point 23 °F
Humidity 53%
Rainfall 0.00 in
Snow Depth Not available.
6:33 AM 5:26 PM
Waning Crescent, 2% visible
METAR KCEW 070653Z AUTO 34007KT 10SM CLR 04/M05 A3022 RMK AO2 SLP234 T00391050

10-Day Weather Forecast

Almanac

Astronomy

Feb. 07, 2016 Rise Set
Actual Time
Civil Twilight
Nautical Twilight
Astronomical Twilight
Moon
Length of Visible Light
Length of Day
Tomorrow will be .
, % of the Moon is Illuminated

Today's Extremes

State Highs State Lows

Community

WunderPhotos

Upload Photos

1,891,174 photos uploaded!

WunderBlog® & News

Nearby

Air Quality

  Air Quality AQ Index Pollutant
Not available.

Snow Depth

Station Depth Elevation

Earthquake Activity

City Distance Mag. Time & Date
Minimum magnitude displayed is 2.5.

Coastal Water Temperatures

Place Temperature

Stations

Nearby Weather Stations

Station Location Temp. Windchill Dew Point Humidity Wind Precip. Elev Updated Type
                   

Watches & Warnings

There are currently no watches in effect.